Bocayna Express — ECEA — position and weather

sailwx.info

Track history (hours):
 
Tides and Currents Weather Stations Pressure Air Temp Water Temp Dewpoint Dewpoint Depression Visibility Wind Speed Wind Dir Waves Ship Positions

Bocayna Express

Last reported at 2017-Nov-29 17:24 UTC. Time now 2017-Dec-12 21:40 UTC.
Position N 28°51' W 013°50'.
Warning: this ship's position is 13 days out of date.

Length 20 m; draft 2.2 m.

Type: High speed craft. MMSI: 224197000.

Date/timePositionNaut miles runAvg speedWind from/ knotsBaromVisibWave heightAir tempDewpointWater temp
2017-Nov-29 17:24N 28°51' W 013°50'6 5.6
2017-Nov-29 16:19N 28°45' W 013°51'614.8
2017-Nov-29 15:53N 28°52' W 013°50'0 0.4
2017-Nov-29 15:28N 28°52' W 013°50'6 6.2
2017-Nov-29 14:26N 28°45' W 013°51'0 0.0
2017-Nov-28 20:18N 28°45' W 013°51'621.9
2017-Nov-28 20:00N 28°52' W 013°50'0 0.0
2017-Nov-28 19:30N 28°52' W 013°50'6 5.5
2017-Nov-28 18:20N 28°45' W 013°51'617.8
2017-Nov-28 17:58N 28°52' W 013°50'0 0.3
2017-Nov-28 17:26N 28°52' W 013°50'6 5.7
2017-Nov-28 16:19N 28°45' W 013°51'615.5
2017-Nov-28 15:54N 28°52' W 013°50'6 4.1
2017-Nov-28 14:20N 28°45' W 013°51'619.6
2017-Nov-28 14:00N 28°52' W 013°50'0 0.0
2017-Nov-28 13:30N 28°52' W 013°50'0 0.0
2017-Nov-28 13:00N 28°52' W 013°50'0 0.0
2017-Nov-28 12:29N 28°52' W 013°50'2 1.0
2017-Nov-28 10:10N 28°49' W 013°51'214.1
2017-Nov-28 10:00N 28°52' W 013°50'1 2.3
2017-Nov-28 09:31N 28°50' W 013°50'5 7.0
2017-Nov-28 08:48N 28°46' W 013°51'620.3
2017-Nov-28 08:30N 28°52' W 013°50'6 6.8
2017-Nov-28 07:36N 28°45' W 013°51'426.1
2017-Nov-28 07:26N 28°49' W 013°50'2 4.2
2017-Nov-28 07:01N 28°51' W 013°50'  
2017-Nov-24 09:37N 28°52' W 013°50'216.9
2017-Nov-24 09:30N 28°50' W 013°50'4 6.5
2017-Nov-24 08:52N 28°45' W 013°51'614.2
2017-Nov-24 08:26N 28°52' W 013°50'7 9.1
2017-Nov-24 07:40N 28°45' W 013°51'423.9
2017-Nov-24 07:31N 28°48' W 013°50'3 6.4
2017-Nov-24 07:00N 28°51' W 013°50'6 0.6
2017-Nov-23 20:21N 28°45' W 013°51'7 7.4
2017-Nov-23 19:26N 28°52' W 013°50'6 6.0
2017-Nov-23 18:22N 28°45' W 013°51'6 6.4
2017-Nov-23 17:25N 28°51' W 013°50'6 5.7
2017-Nov-23 16:24N 28°45' W 013°51'4 4.3
2017-Nov-23 15:27N 28°50' W 013°50'4 0.8
2017-Nov-23 10:26N 28°46' W 013°51'0 0.0
2017-Nov-22 20:16N 28°46' W 013°51'619.4
2017-Nov-22 19:57N 28°52' W 013°50'0 0.3
2017-Nov-22 19:25N 28°52' W 013°50'  
Track history (hours):
 
Tides and Currents Weather Stations Pressure Air Temp Water Temp Dewpoint Dewpoint Depression Visibility Wind Speed Wind Dir Waves Ship Positions

Bocayna Express

Last reported at 2017-Nov-29 17:24 UTC. Time now 2017-Dec-12 21:40 UTC.
Position N 28°51' W 013°50'.
Warning: this ship's position is 13 days out of date.

Length 20 m; draft 2.2 m.

Type: High speed craft. MMSI: 224197000.

Date/timePositionNaut miles runAvg speedWind from/ knotsBaromVisibWave heightAir tempDewpointWater temp
2017-Nov-29 17:24N 28°51' W 013°50'6 5.6
2017-Nov-29 16:19N 28°45' W 013°51'614.8
2017-Nov-29 15:53N 28°52' W 013°50'0 0.4
2017-Nov-29 15:28N 28°52' W 013°50'6 6.2
2017-Nov-29 14:26N 28°45' W 013°51'0 0.0
2017-Nov-28 20:18N 28°45' W 013°51'621.9
2017-Nov-28 20:00N 28°52' W 013°50'0 0.0
2017-Nov-28 19:30N 28°52' W 013°50'6 5.5
2017-Nov-28 18:20N 28°45' W 013°51'617.8
2017-Nov-28 17:58N 28°52' W 013°50'0 0.3
2017-Nov-28 17:26N 28°52' W 013°50'6 5.7
2017-Nov-28 16:19N 28°45' W 013°51'615.5
2017-Nov-28 15:54N 28°52' W 013°50'6 4.1
2017-Nov-28 14:20N 28°45' W 013°51'619.6
2017-Nov-28 14:00N 28°52' W 013°50'0 0.0
2017-Nov-28 13:30N 28°52' W 013°50'0 0.0
2017-Nov-28 13:00N 28°52' W 013°50'0 0.0
2017-Nov-28 12:29N 28°52' W 013°50'2 1.0
2017-Nov-28 10:10N 28°49' W 013°51'214.1
2017-Nov-28 10:00N 28°52' W 013°50'1 2.3
2017-Nov-28 09:31N 28°50' W 013°50'5 7.0
2017-Nov-28 08:48N 28°46' W 013°51'620.3
2017-Nov-28 08:30N 28°52' W 013°50'6 6.8
2017-Nov-28 07:36N 28°45' W 013°51'426.1
2017-Nov-28 07:26N 28°49' W 013°50'2 4.2
2017-Nov-28 07:01N 28°51' W 013°50'  
2017-Nov-24 09:37N 28°52' W 013°50'216.9
2017-Nov-24 09:30N 28°50' W 013°50'4 6.5
2017-Nov-24 08:52N 28°45' W 013°51'614.2
2017-Nov-24 08:26N 28°52' W 013°50'7 9.1
2017-Nov-24 07:40N 28°45' W 013°51'423.9
2017-Nov-24 07:31N 28°48' W 013°50'3 6.4
2017-Nov-24 07:00N 28°51' W 013°50'6 0.6
2017-Nov-23 20:21N 28°45' W 013°51'7 7.4
2017-Nov-23 19:26N 28°52' W 013°50'6 6.0
2017-Nov-23 18:22N 28°45' W 013°51'6 6.4
2017-Nov-23 17:25N 28°51' W 013°50'6 5.7
2017-Nov-23 16:24N 28°45' W 013°51'4 4.3
2017-Nov-23 15:27N 28°50' W 013°50'4 0.8
2017-Nov-23 10:26N 28°46' W 013°51'0 0.0
2017-Nov-22 20:16N 28°46' W 013°51'619.4
2017-Nov-22 19:57N 28°52' W 013°50'0 0.3
2017-Nov-22 19:25N 28°52' W 013°50'  

Dump ship's entire track history